Observations for ABERDEEN DYCE, United Kingdom (EGPD)

EGPD 240920Z 05008KT 2500 RADZ OVC003 12/11 Q1021 REDZ  
EGPD 240850Z 05009KT 8000 -RA SCT004 OVC009 12/11 Q1022 TEMPO RA
EGPD 240820Z 07007KT 040V110 9000 -RA SCT004 BKN009 12/11 Q1021 RERA TEMPO BKN012   
EGPD 240750Z 04010KT 5000 RA SCT004 BKN009 12/11 Q1021 RERA TEMPO 4000 BKN005   
EGPD 240720Z 03009KT 5000 RA SCT004 OVC006 12/11 Q1021 TEMPO 4000 BKN004
EGPD 240650Z 05006KT 6000 RA SCT004 OVC012 12/11 Q1022 RERA TEMPO 4000 RADZ BKN008  
EGPD 240620Z 06004KT 020V080 7000 RA SCT005 OVC020 12/11 Q1022 RERA TEMPO BKN005
EGPD 240550Z 04004KT 6000 -RA SCT007 OVC030 12/11 Q1023 TEMPO 4000 RADZ BKN007  
EGPD 240520Z VRB03KT 8000 -RA SCT013TCU OVC034 12/11 Q1023 TEMPO 4000 RADZ BKN008   
EGPD 240450Z 07004KT 020V100 9999 FEW015 OVC038 13/11 Q1022 TEMPO 4000 RADZ BKN008  
EGPD 240420Z AUTO VRB03KT 9999 BKN037 OVC044 12/11 Q1022 TEMPO 4000 RADZ BKN008 
EGPD 240350Z AUTO 07004KT 030V110 9999 FEW009 OVC045 12/11 Q1022 TEMPO RA BKN009
EGPD 240320Z AUTO VRB03KT 9999 BKN007 BKN011 OVC046 12/11 Q1023 TEMPO BKN005
EGPD 240250Z AUTO VRB03KT 9999 BKN006 12/11 Q1023 NOSIG 
EGPD 240220Z AUTO 06004KT 020V120 9999 BKN008 OVC046 12/11 Q1023 TEMPO SCT008   
EGPD 240150Z AUTO 06004KT 030V090 9999 BKN010 OVC046 12/11 Q1023 TEMPO BKN008   
EGPD 240120Z AUTO 09004KT 070V130 9999 SCT008 BKN012 12/11 Q1024 TEMPO BKN008   
EGPD 240050Z AUTO VRB03KT 9999 BKN007 BKN024 12/11 Q1024 NOSIG  
EGPD 240020Z AUTO VRB03KT 9999 BKN008 12/11 Q1024 TEMPO SCT008  
EGPD 232350Z AUTO 09004KT 040V120 9999 BKN007 12/11 Q1024 TEMPO SCT007  
EGPD 232320Z AUTO 09005KT 9999 SCT007 12/11 Q1024 TEMPO BKN007  
EGPD 232250Z AUTO 11005KT 9999 SCT006 BKN010 12/11 Q1024 TEMPO BKN008   
EGPD 232220Z AUTO 06004KT 9999 NCD 12/11 Q1024 NOSIG
EGPD 232150Z AUTO 06004KT 020V090 9999 NCD 12/11 Q1024 NOSIG
EGPD 232120Z AUTO 12006KT 9999 NCD 12/11 Q1025 TEMPO BKN008 
EGPD 232050Z AUTO 13007KT 9999 SCT008 13/11 Q1025 TEMPO BKN008  
EGPD 232020Z AUTO 12008KT 9999 BKN007 13/11 Q1024 TEMPO BKN005  
EGPD 231950Z AUTO 11007KT 9999 SCT009 13/11 Q1024 TEMPO BKN009  
EGPD 231920Z AUTO 12007KT 080V150 9999 SCT010 13/11 Q1024 TEMPO BKN010  
EGPD 231850Z AUTO 13010KT 9999 BKN011 14/11 Q1024 TEMPO SCT011  
EGPD 231820Z AUTO 15011KT 9999 NCD 14/11 Q1024 NOSIG
EGPD 231750Z AUTO 14011KT 9999 NCD 15/10 Q1024 NOSIG
EGPD 231720Z AUTO 13010KT 9999 NCD 16/07 Q1023 NOSIG
EGPD 231650Z AUTO 14011KT 9999 NCD 16/08 Q1023 NOSIG
EGPD 231620Z AUTO 15011KT 9999 NCD 16/08 Q1023 NOSIG
EGPD 231550Z AUTO 14011KT 9999 NCD 17/09 Q1023 NOSIG
EGPD 231520Z AUTO 14012KT 9999 NCD 17/10 Q1023 NOSIG
EGPD 231450Z AUTO 16012KT 9999 NCD 17/10 Q1023 NOSIG
EGPD 231420Z AUTO 15012KT 9999 NCD 17/10 Q1023 NOSIG
EGPD 231350Z AUTO 17014KT 9999 NCD 17/10 Q1023 NOSIG
EGPD 231320Z AUTO 15015KT 9999 NCD 16/09 Q1023 NOSIG
EGPD 231250Z AUTO 13012KT 9999 NCD 17/12 Q1023 NOSIG
EGPD 231220Z 14010KT 9999 FEW019 17/12 Q1023 NOSIG  
EGPD 231150Z 14009KT 110V180 9999 FEW020 16/12 Q1023 NOSIG  
EGPD 231120Z 12010KT 9999 FEW019 17/11 Q1023 NOSIG  
EGPD 231050Z 11008KT 080V150 9999 FEW017 16/12 Q1023 NOSIG  
EGPD 231020Z 11008KT 080V150 9999 FEW016 16/12 Q1023 NOSIG  
EGPD 230950Z 11006KT 060V160 9999 FEW013 SCT040 15/11 Q1023 NOSIG   
EGPD 230920Z AUTO 11005KT 080V150 9999 SCT013 BKN042 15/11 Q1023 NOSIG  
EGPD 230920Z AUTO 11005KT 080V150 9999 SCT013 BKN042 15/11 Q1023
EGPD 230850Z 11005KT 060V160 9999 FEW045 15/12 Q1022 NOSIG